createdAt,value
2023-02-02T00:01:46.114Z,4.41
2023-02-02T00:04:18.653Z,4.49
2023-02-02T00:06:46.940Z,4.47
2023-02-02T00:09:18.970Z,4.48
2023-02-02T00:11:48.835Z,4.58
2023-02-02T00:14:15.959Z,4.50
2023-02-02T00:16:54.643Z,4.56
2023-02-02T00:19:33.526Z,4.53
2023-02-02T00:22:00.596Z,4.54
2023-02-02T00:24:27.701Z,4.57
2023-02-02T00:26:57.726Z,4.52
2023-02-02T00:29:31.320Z,4.50
2023-02-02T00:31:58.506Z,4.56
2023-02-02T00:34:25.921Z,4.58
2023-02-02T00:36:53.339Z,4.67
2023-02-02T00:39:26.285Z,4.52
2023-02-02T00:41:53.890Z,4.70
2023-02-02T00:44:40.036Z,4.60
2023-02-02T00:47:07.100Z,4.60
2023-02-02T00:49:34.220Z,4.63
2023-02-02T00:52:01.362Z,4.53
2023-02-02T00:54:28.798Z,4.64
2023-02-02T00:56:55.977Z,4.59
2023-02-02T00:59:23.075Z,4.46
2023-02-02T01:01:50.186Z,4.54
2023-02-02T01:04:17.284Z,4.45
2023-02-02T01:06:44.338Z,4.44
2023-02-02T01:09:11.517Z,4.38
2023-02-02T01:11:38.662Z,4.28
2023-02-02T01:14:06.064Z,4.24
2023-02-02T01:16:33.200Z,4.31
2023-02-02T01:19:00.243Z,4.24
2023-02-02T01:21:27.312Z,4.15
2023-02-02T01:23:54.432Z,4.13
2023-02-02T01:26:21.537Z,4.06
2023-02-02T01:28:48.853Z,3.97
2023-02-02T01:31:21.117Z,3.94
2023-02-02T01:33:50.076Z,3.95
2023-02-02T01:36:22.474Z,3.83
2023-02-02T01:38:50.730Z,3.90
2023-02-02T01:41:23.419Z,3.88
2023-02-02T01:44:03.192Z,3.78
2023-02-02T01:46:36.308Z,3.85
2023-02-02T01:49:20.038Z,3.82
2023-02-02T01:51:53.582Z,3.81
2023-02-02T01:54:50.994Z,3.74
2023-02-02T01:57:26.658Z,3.82
2023-02-02T01:59:55.962Z,3.79
2023-02-02T02:02:24.705Z,3.66
2023-02-02T02:04:52.279Z,3.73
2023-02-02T02:07:19.361Z,3.73
2023-02-02T02:09:46.460Z,3.71
2023-02-02T02:12:16.049Z,3.75
2023-02-02T02:15:08.652Z,3.71
2023-02-02T02:17:47.658Z,3.79
2023-02-02T02:21:01.479Z,3.81
2023-02-02T02:24:40.625Z,3.80
2023-02-02T02:28:06.232Z,3.83
2023-02-02T02:31:07.334Z,3.85
2023-02-02T02:34:18.362Z,3.84
2023-02-02T02:37:02.137Z,3.87
2023-02-02T02:39:43.261Z,3.86
2023-02-02T02:42:17.212Z,3.95
2023-02-02T02:44:45.467Z,3.95
2023-02-02T02:47:12.722Z,4.07
2023-02-02T02:49:48.174Z,4.04
2023-02-02T02:52:15.925Z,3.94
2023-02-02T02:54:50.471Z,3.92
2023-02-02T02:58:07.500Z,3.88
2023-02-02T03:00:58.664Z,4.02
2023-02-02T03:04:06.494Z,4.07
2023-02-02T03:06:45.033Z,4.09
2023-02-02T03:09:23.576Z,4.00
2023-02-02T03:11:50.825Z,4.08
2023-02-02T03:14:17.974Z,4.07
2023-02-02T03:16:45.070Z,4.12
2023-02-02T03:19:12.217Z,4.16
2023-02-02T03:21:39.281Z,4.12
2023-02-02T03:24:06.793Z,4.20
2023-02-02T03:26:34.462Z,4.21
2023-02-02T03:29:01.879Z,4.25
2023-02-02T03:31:29.800Z,4.26
2023-02-02T03:33:57.035Z,4.31
2023-02-02T03:36:24.336Z,4.34
2023-02-02T03:38:51.363Z,4.32
2023-02-02T03:41:18.421Z,4.31
2023-02-02T03:43:45.567Z,4.31
2023-02-02T03:46:12.684Z,4.34
2023-02-02T03:48:40.000Z,4.30
2023-02-02T03:51:15.255Z,4.22
2023-02-02T03:53:47.825Z,4.34
2023-02-02T03:56:16.396Z,4.36
2023-02-02T03:58:43.606Z,4.32
2023-02-02T04:01:15.035Z,4.35
2023-02-02T04:03:42.896Z,4.29
2023-02-02T04:06:10.017Z,4.29
2023-02-02T04:08:37.173Z,4.36
2023-02-02T04:11:04.267Z,4.38
2023-02-02T04:13:31.306Z,4.37
2023-02-02T04:16:01.793Z,4.40
2023-02-02T04:18:29.733Z,4.46
2023-02-02T04:21:00.708Z,4.30
2023-02-02T04:23:29.511Z,4.34
2023-02-02T04:25:57.368Z,4.40
2023-02-02T04:28:25.620Z,4.46
2023-02-02T04:30:55.509Z,4.39
2023-02-02T04:33:24.767Z,4.34
2023-02-02T04:35:52.117Z,4.48
2023-02-02T04:38:19.547Z,4.51
2023-02-02T04:40:48.319Z,4.38
2023-02-02T04:43:15.997Z,4.44
2023-02-02T04:45:43.151Z,4.42
2023-02-02T04:48:10.376Z,4.35
2023-02-02T04:50:37.907Z,4.33
2023-02-02T04:53:05.237Z,4.42
2023-02-02T04:55:36.407Z,4.40
2023-02-02T04:58:03.772Z,4.40
2023-02-02T05:00:30.952Z,4.47
2023-02-02T05:03:00.035Z,4.51
2023-02-02T05:05:27.262Z,4.51
2023-02-02T05:07:54.442Z,4.47
2023-02-02T05:10:21.452Z,4.52
2023-02-02T05:12:48.507Z,4.51
2023-02-02T05:15:15.700Z,4.49
2023-02-02T05:17:42.804Z,4.51
2023-02-02T05:20:10.930Z,4.58
2023-02-02T05:22:38.016Z,4.56
2023-02-02T05:25:06.964Z,4.48
2023-02-02T05:27:34.864Z,4.50
2023-02-02T05:30:05.173Z,4.50
2023-02-02T05:32:32.244Z,4.54
2023-02-02T05:34:59.285Z,4.51
2023-02-02T05:37:26.317Z,4.55
2023-02-02T05:39:53.806Z,4.46
2023-02-02T05:42:20.849Z,4.56
2023-02-02T05:44:48.095Z,4.50
2023-02-02T05:47:15.191Z,4.43
2023-02-02T05:49:42.291Z,4.42
2023-02-02T05:52:17.992Z,4.39
2023-02-02T05:54:45.312Z,4.53
2023-02-02T05:57:12.632Z,4.51
2023-02-02T05:59:39.751Z,4.53
2023-02-02T06:02:06.904Z,4.49
2023-02-02T06:04:33.937Z,4.52
2023-02-02T06:07:01.019Z,4.48
2023-02-02T06:09:28.007Z,4.54
2023-02-02T06:11:55.035Z,4.51
2023-02-02T06:14:22.114Z,4.56
2023-02-02T06:16:49.189Z,4.55
2023-02-02T06:19:16.246Z,4.54
2023-02-02T06:21:43.262Z,4.56
2023-02-02T06:24:10.351Z,4.61
2023-02-02T06:26:37.527Z,4.67
2023-02-02T06:29:04.678Z,4.57
2023-02-02T06:31:31.904Z,4.58
2023-02-02T06:33:59.987Z,4.65
2023-02-02T06:36:28.501Z,4.72
2023-02-02T06:38:57.649Z,4.64
2023-02-02T06:41:25.926Z,4.58
2023-02-02T06:43:53.163Z,4.49
2023-02-02T06:46:20.391Z,4.73
2023-02-02T06:48:47.427Z,4.78
2023-02-02T06:51:14.637Z,4.78
2023-02-02T06:53:41.722Z,4.76
2023-02-02T06:56:12.991Z,4.74
2023-02-02T06:58:40.143Z,4.78
2023-02-02T07:01:14.175Z,4.81
2023-02-02T07:03:41.422Z,4.78
2023-02-02T07:06:29.253Z,4.70
2023-02-02T07:09:01.797Z,4.79
2023-02-02T07:11:30.953Z,4.78
2023-02-02T07:13:58.419Z,4.72
2023-02-02T07:16:25.679Z,4.79
2023-02-02T07:18:52.975Z,4.76
2023-02-02T07:21:25.514Z,4.73
2023-02-02T07:23:52.612Z,4.66
2023-02-02T07:26:20.675Z,4.77
2023-02-02T07:28:48.198Z,4.63
2023-02-02T07:31:25.072Z,4.64
2023-02-02T07:33:52.825Z,4.75
2023-02-02T07:36:23.412Z,4.74
2023-02-02T07:38:57.507Z,4.75
2023-02-02T07:41:25.383Z,4.75
2023-02-02T07:43:52.652Z,4.70
2023-02-02T07:46:21.069Z,4.77
2023-02-02T07:48:48.634Z,4.66
2023-02-02T07:51:18.238Z,4.66
2023-02-02T07:53:51.508Z,4.75
2023-02-02T07:56:30.535Z,4.81
2023-02-02T07:58:58.853Z,4.80
2023-02-02T08:01:28.542Z,4.83
2023-02-02T08:04:00.542Z,4.79
2023-02-02T08:06:32.269Z,4.82
2023-02-02T08:09:01.122Z,4.77
2023-02-02T08:11:29.447Z,4.79
2023-02-02T08:13:59.897Z,4.80
2023-02-02T08:16:31.097Z,4.80
2023-02-02T08:18:59.143Z,4.77
2023-02-02T08:21:26.297Z,4.77
2023-02-02T08:23:54.067Z,4.83
2023-02-02T08:26:26.675Z,4.83
2023-02-02T08:28:59.063Z,4.85
2023-02-02T08:31:34.176Z,4.77
2023-02-02T08:34:02.041Z,4.83
2023-02-02T08:36:33.066Z,4.76
2023-02-02T08:39:08.804Z,4.80
2023-02-02T08:41:37.009Z,4.76
2023-02-02T08:44:14.581Z,4.74
2023-02-02T08:46:42.814Z,4.75
2023-02-02T08:49:12.376Z,4.74
2023-02-02T08:51:39.705Z,4.78
2023-02-02T08:54:06.860Z,4.83
2023-02-02T08:56:33.990Z,4.87
2023-02-02T08:59:04.875Z,4.89
2023-02-02T09:01:35.685Z,4.92
2023-02-02T09:04:11.968Z,4.99
2023-02-02T09:06:41.280Z,5.09
2023-02-02T09:09:13.277Z,5.12
2023-02-02T09:11:41.578Z,5.17
2023-02-02T09:14:09.047Z,5.25
2023-02-02T09:16:36.711Z,5.27
2023-02-02T09:19:05.262Z,5.30
2023-02-02T09:21:37.069Z,5.37
2023-02-02T09:24:13.198Z,5.38
2023-02-02T09:26:40.838Z,5.35
2023-02-02T09:29:12.358Z,5.36
2023-02-02T09:31:39.718Z,5.44
2023-02-02T09:34:09.863Z,5.43
2023-02-02T09:36:39.124Z,5.44
2023-02-02T09:39:08.073Z,5.53
2023-02-02T09:41:38.092Z,5.47
2023-02-02T09:44:35.602Z,5.37
2023-02-02T09:47:34.203Z,5.38
2023-02-02T09:50:58.507Z,5.45
2023-02-02T09:53:53.150Z,5.38
2023-02-02T09:56:36.864Z,5.27
2023-02-02T09:59:19.206Z,5.34
2023-02-02T10:01:50.133Z,5.55
2023-02-02T10:04:31.181Z,5.68
2023-02-02T10:07:13.221Z,5.64
2023-02-02T10:09:57.953Z,5.60
2023-02-02T10:13:22.599Z,5.60
2023-02-02T10:16:03.644Z,5.67
2023-02-02T10:18:42.200Z,5.65
2023-02-02T10:21:26.901Z,5.71
2023-02-02T10:23:54.706Z,5.77
2023-02-02T10:26:33.559Z,5.78
2023-02-02T10:29:26.266Z,5.74
2023-02-02T10:32:22.701Z,5.82
2023-02-02T10:35:27.227Z,5.83
2023-02-02T10:38:28.203Z,5.83
2023-02-02T10:41:18.375Z,5.87
2023-02-02T10:44:34.950Z,5.85
2023-02-02T10:47:06.717Z,5.93
2023-02-02T10:49:38.093Z,5.91
2023-02-02T10:52:13.508Z,5.92
2023-02-02T10:55:10.236Z,6.02
2023-02-02T10:57:57.510Z,6.06
2023-02-02T11:00:34.819Z,5.99
2023-02-02T11:03:04.845Z,5.93
2023-02-02T11:05:50.903Z,5.82
2023-02-02T11:08:42.731Z,5.84
2023-02-02T11:11:35.137Z,5.84
2023-02-02T11:14:17.137Z,5.81
2023-02-02T11:16:46.080Z,5.82
2023-02-02T11:19:19.761Z,6.05
2023-02-02T11:21:54.258Z,5.98
2023-02-02T11:24:45.868Z,6.00
2023-02-02T11:27:20.898Z,6.06
2023-02-02T11:29:53.698Z,6.04
2023-02-02T11:32:33.077Z,6.16
2023-02-02T11:35:08.900Z,6.32
2023-02-02T11:37:52.053Z,6.63
2023-02-02T11:40:33.011Z,6.69
2023-02-02T11:43:14.872Z,6.72
2023-02-02T11:45:44.857Z,6.94
2023-02-02T11:48:26.948Z,6.93
2023-02-02T11:50:57.851Z,6.99
2023-02-02T11:53:30.580Z,6.93
2023-02-02T11:56:10.631Z,7.08
2023-02-02T11:58:50.034Z,7.04
2023-02-02T12:01:25.388Z,6.90
2023-02-02T12:03:58.413Z,6.81
2023-02-02T12:06:38.446Z,6.77
2023-02-02T12:09:24.789Z,6.75
2023-02-02T12:12:52.492Z,6.69
2023-02-02T12:15:47.721Z,6.65
2023-02-02T12:19:08.566Z,6.50
2023-02-02T12:22:25.666Z,6.50
2023-02-02T12:25:14.427Z,6.42
2023-02-02T12:28:05.164Z,6.38
2023-02-02T12:31:02.795Z,6.47
2023-02-02T12:33:58.935Z,6.36
2023-02-02T12:37:00.373Z,6.35
2023-02-02T12:39:45.805Z,6.38
2023-02-02T12:42:30.816Z,6.30
2023-02-02T12:45:08.573Z,6.16
2023-02-02T12:47:55.072Z,6.07
2023-02-02T12:50:32.043Z,6.05
2023-02-02T12:53:35.572Z,6.14
2023-02-02T12:56:18.468Z,6.13
2023-02-02T12:59:15.866Z,6.14
2023-02-02T13:02:00.740Z,6.14
2023-02-02T13:05:04.074Z,6.11
2023-02-02T13:07:47.685Z,6.16
2023-02-02T13:10:47.421Z,6.32
2023-02-02T13:13:37.932Z,6.21
2023-02-02T13:16:14.290Z,6.09
2023-02-02T13:19:04.752Z,6.15
2023-02-02T13:21:32.965Z,6.24
2023-02-02T13:24:05.080Z,6.15
2023-02-02T13:26:39.045Z,6.13
2023-02-02T13:29:11.674Z,6.11
2023-02-02T13:32:06.206Z,6.12
2023-02-02T13:35:01.667Z,6.09
2023-02-02T13:37:54.311Z,6.10
2023-02-02T13:40:38.953Z,6.15
2023-02-02T13:43:11.891Z,6.07
2023-02-02T13:46:08.794Z,6.07
2023-02-02T13:48:41.757Z,6.15
2023-02-02T13:51:39.094Z,6.23
2023-02-02T13:54:31.415Z,6.45
2023-02-02T13:57:26.057Z,6.60
2023-02-02T14:00:33.666Z,6.68
2023-02-02T14:03:21.253Z,6.66
2023-02-02T14:06:25.033Z,6.75
2023-02-02T14:09:05.524Z,7.02
2023-02-02T14:11:37.423Z,6.87
2023-02-02T14:14:33.064Z,6.86
2023-02-02T14:17:04.863Z,6.77
2023-02-02T14:19:53.877Z,6.68
2023-02-02T14:22:42.936Z,6.65
2023-02-02T14:25:33.566Z,6.52
2023-02-02T14:28:11.404Z,6.49
2023-02-02T14:30:40.366Z,6.43
2023-02-02T14:33:22.654Z,6.45
2023-02-02T14:35:49.545Z,6.46
2023-02-02T14:38:44.929Z,6.64
2023-02-02T14:41:50.393Z,6.60
2023-02-02T14:44:17.398Z,6.58
2023-02-02T14:46:49.192Z,6.48
2023-02-02T14:49:21.658Z,6.33
2023-02-02T14:52:01.594Z,6.39
2023-02-02T14:54:42.304Z,6.35
2023-02-02T14:57:22.981Z,6.31
2023-02-02T14:59:52.075Z,6.30
2023-02-02T15:02:34.169Z,6.29
2023-02-02T15:05:28.882Z,6.17
2023-02-02T15:08:24.760Z,6.21
2023-02-02T15:10:59.875Z,6.07
2023-02-02T15:13:37.756Z,6.04
2023-02-02T15:16:21.724Z,5.90
2023-02-02T15:19:02.157Z,5.84
2023-02-02T15:21:30.674Z,5.91
2023-02-02T15:23:59.019Z,5.76
2023-02-02T15:26:37.503Z,5.63
2023-02-02T15:29:24.447Z,5.60
2023-02-02T15:31:55.875Z,5.55
2023-02-02T15:34:31.073Z,5.44
2023-02-02T15:37:06.025Z,5.40
2023-02-02T15:39:52.284Z,5.29
2023-02-02T15:42:44.219Z,5.30
2023-02-02T15:45:49.346Z,5.21
2023-02-02T15:48:31.585Z,5.16
2023-02-02T15:51:14.520Z,5.13
2023-02-02T15:53:41.454Z,5.15
2023-02-02T15:56:23.426Z,5.07
2023-02-02T15:58:54.761Z,5.01
2023-02-02T16:01:30.452Z,4.99
2023-02-02T16:04:14.093Z,4.91
2023-02-02T16:06:41.980Z,4.89
2023-02-02T16:09:25.166Z,4.82
2023-02-02T16:11:53.350Z,4.77
2023-02-02T16:14:20.852Z,4.72
2023-02-02T16:16:51.059Z,4.74
2023-02-02T16:19:25.073Z,4.64
2023-02-02T16:21:56.626Z,4.66
2023-02-02T16:24:34.890Z,4.64
2023-02-02T16:27:12.375Z,4.67
2023-02-02T16:29:42.865Z,4.69
2023-02-02T16:32:44.267Z,4.62
2023-02-02T16:35:35.323Z,4.64
2023-02-02T16:38:32.533Z,4.62
2023-02-02T16:41:12.836Z,4.59
2023-02-02T16:43:43.667Z,4.61
2023-02-02T16:46:16.680Z,4.59
2023-02-02T16:49:06.256Z,4.61
2023-02-02T16:51:34.212Z,4.61
2023-02-02T16:54:07.503Z,4.54
2023-02-02T16:56:47.555Z,4.57
2023-02-02T16:59:34.660Z,4.61
2023-02-02T17:02:18.798Z,4.63
2023-02-02T17:04:51.057Z,4.67
2023-02-02T17:07:18.777Z,4.59
2023-02-02T17:09:48.920Z,4.68
2023-02-02T17:12:30.491Z,4.59
2023-02-02T17:15:22.365Z,4.64
2023-02-02T17:17:49.716Z,4.59
2023-02-02T17:20:18.527Z,4.58
2023-02-02T17:22:54.136Z,4.51
2023-02-02T17:25:52.605Z,4.61
2023-02-02T17:28:24.186Z,4.49
2023-02-02T17:31:16.287Z,4.47
2023-02-02T17:33:43.692Z,4.41
2023-02-02T17:36:13.428Z,4.45
2023-02-02T17:38:40.547Z,4.51
2023-02-02T17:41:10.657Z,4.50
2023-02-02T17:43:37.735Z,4.51
2023-02-02T17:46:10.018Z,4.54
2023-02-02T17:48:37.270Z,4.50
2023-02-02T17:51:07.173Z,4.45
2023-02-02T17:53:34.651Z,4.46
2023-02-02T17:56:01.777Z,4.45
2023-02-02T17:58:28.796Z,4.59
2023-02-02T18:00:59.003Z,4.49
2023-02-02T18:03:34.420Z,4.42
2023-02-02T18:06:02.677Z,4.39
2023-02-02T18:08:31.868Z,4.51
2023-02-02T18:10:59.578Z,4.48
2023-02-02T18:13:27.587Z,4.48
2023-02-02T18:15:56.289Z,4.53
2023-02-02T18:18:23.641Z,4.48
2023-02-02T18:20:51.585Z,4.39
2023-02-02T18:23:19.958Z,4.42
2023-02-02T18:25:47.175Z,4.37
2023-02-02T18:28:17.333Z,4.44
2023-02-02T18:30:47.051Z,4.44
2023-02-02T18:33:19.699Z,4.33
2023-02-02T18:35:48.045Z,4.31
2023-02-02T18:38:15.233Z,4.35
2023-02-02T18:40:42.409Z,4.42
2023-02-02T18:43:09.801Z,4.37
2023-02-02T18:45:36.960Z,4.39
2023-02-02T18:48:04.416Z,4.37
2023-02-02T18:50:31.480Z,4.32
2023-02-02T18:52:58.761Z,4.29
2023-02-02T18:55:26.699Z,4.33
2023-02-02T18:57:53.993Z,4.31
2023-02-02T19:00:22.192Z,4.34
2023-02-02T19:02:49.445Z,4.34
2023-02-02T19:05:35.644Z,4.34
2023-02-02T19:08:04.091Z,4.38
2023-02-02T19:10:31.559Z,4.37
2023-02-02T19:13:24.166Z,4.33
2023-02-02T19:15:51.740Z,4.32
2023-02-02T19:18:22.529Z,4.38
2023-02-02T19:20:51.662Z,4.31
2023-02-02T19:23:23.603Z,4.28
2023-02-02T19:25:54.162Z,4.30
2023-02-02T19:28:30.023Z,4.22
2023-02-02T19:31:01.660Z,4.23
2023-02-02T19:33:47.026Z,4.27
2023-02-02T19:36:36.391Z,4.33
2023-02-02T19:39:14.700Z,4.33
2023-02-02T19:41:43.218Z,4.32
2023-02-02T19:44:23.016Z,4.23
2023-02-02T19:46:52.831Z,4.30
2023-02-02T19:49:34.296Z,4.25
2023-02-02T19:52:08.161Z,4.22
2023-02-02T19:54:41.846Z,4.10
2023-02-02T19:57:33.227Z,4.10
2023-02-02T20:00:20.730Z,4.10
2023-02-02T20:03:10.198Z,4.05
2023-02-02T20:05:48.890Z,4.03
2023-02-02T20:08:25.662Z,4.07
2023-02-02T20:10:56.041Z,4.06
2023-02-02T20:13:31.962Z,4.02
2023-02-02T20:16:04.202Z,4.05
2023-02-02T20:18:45.366Z,4.06
2023-02-02T20:21:27.263Z,4.01
2023-02-02T20:23:54.424Z,3.97
2023-02-02T20:26:37.583Z,3.93
2023-02-02T20:29:45.348Z,3.95
2023-02-02T20:32:26.374Z,3.97
2023-02-02T20:34:57.043Z,3.96
2023-02-02T20:37:30.275Z,3.88
2023-02-02T20:40:21.651Z,3.87
2023-02-02T20:42:49.559Z,3.90
2023-02-02T20:45:18.354Z,3.86
2023-02-02T20:47:46.156Z,3.79
2023-02-02T20:50:16.890Z,3.74
2023-02-02T20:52:44.092Z,3.83
2023-02-02T20:55:12.179Z,3.74
2023-02-02T20:57:40.310Z,3.69
2023-02-02T21:00:13.348Z,3.65
2023-02-02T21:02:40.456Z,3.72
2023-02-02T21:05:07.862Z,3.63
2023-02-02T21:07:35.019Z,3.60
2023-02-02T21:10:02.225Z,3.61
2023-02-02T21:12:29.301Z,3.61
2023-02-02T21:14:56.406Z,3.54
2023-02-02T21:17:23.783Z,3.52
2023-02-02T21:19:51.052Z,3.42
2023-02-02T21:22:18.179Z,3.49
2023-02-02T21:24:45.241Z,3.41
2023-02-02T21:27:12.918Z,3.39
2023-02-02T21:29:40.109Z,3.44
2023-02-02T21:32:08.302Z,3.49
2023-02-02T21:34:37.760Z,3.41
2023-02-02T21:37:15.522Z,3.33
2023-02-02T21:39:48.602Z,3.40
2023-02-02T21:42:22.230Z,3.37
2023-02-02T21:45:21.244Z,3.51
2023-02-02T21:47:54.377Z,3.36
2023-02-02T21:50:31.994Z,3.32
2023-02-02T21:53:17.278Z,3.27
2023-02-02T21:55:47.159Z,3.21
2023-02-02T21:58:22.434Z,3.09
2023-02-02T22:00:50.567Z,3.12
2023-02-02T22:03:46.852Z,3.08
2023-02-02T22:06:36.741Z,2.97
2023-02-02T22:09:15.437Z,2.99
2023-02-02T22:11:50.779Z,2.91
2023-02-02T22:14:43.762Z,2.86
2023-02-02T22:17:31.678Z,2.91
2023-02-02T22:20:37.128Z,2.80
2023-02-02T22:23:04.431Z,2.91
2023-02-02T22:25:40.423Z,2.76
2023-02-02T22:28:32.559Z,2.89
2023-02-02T22:31:00.731Z,2.77
2023-02-02T22:33:27.980Z,2.68
2023-02-02T22:35:55.191Z,2.70
2023-02-02T22:38:25.601Z,2.78
2023-02-02T22:40:53.715Z,2.70
2023-02-02T22:43:21.745Z,2.75
2023-02-02T22:45:49.343Z,2.73
2023-02-02T22:48:17.004Z,2.75
2023-02-02T22:50:44.603Z,2.81
2023-02-02T22:53:13.899Z,2.76
2023-02-02T22:55:41.434Z,2.69
2023-02-02T22:58:08.513Z,2.61
2023-02-02T23:00:36.727Z,2.81
2023-02-02T23:03:04.041Z,2.64
2023-02-02T23:05:31.155Z,2.77
2023-02-02T23:07:58.195Z,2.75
2023-02-02T23:10:28.280Z,2.64
2023-02-02T23:12:58.561Z,2.70
2023-02-02T23:15:26.615Z,2.78
2023-02-02T23:17:54.605Z,2.74
2023-02-02T23:20:21.900Z,2.65
2023-02-02T23:22:49.669Z,2.86
2023-02-02T23:25:18.758Z,2.84
2023-02-02T23:27:46.117Z,2.79
2023-02-02T23:30:14.366Z,2.77
2023-02-02T23:32:42.266Z,2.89
2023-02-02T23:35:10.899Z,2.89
2023-02-02T23:37:38.545Z,2.83
2023-02-02T23:40:06.505Z,2.84
2023-02-02T23:42:34.099Z,2.90
2023-02-02T23:45:01.259Z,2.92
2023-02-02T23:47:28.567Z,2.99
2023-02-02T23:49:56.320Z,2.97
2023-02-02T23:52:24.052Z,2.95
2023-02-02T23:54:53.479Z,2.87
2023-02-02T23:57:21.034Z,2.95
2023-02-02T23:59:48.138Z,3.09
